createdAt,value
2019-05-07T00:04:26.265Z,7.15
2019-05-07T00:09:32.134Z,7.03
2019-05-07T00:14:35.753Z,13.93
2019-05-07T00:19:39.916Z,18.12
2019-05-07T00:24:43.571Z,16.70
2019-05-07T00:29:47.323Z,12.25
2019-05-07T00:34:55.520Z,10.03
2019-05-07T00:40:25.240Z,13.15
2019-05-07T00:45:48.699Z,11.85
2019-05-07T00:50:56.690Z,9.50
2019-05-07T00:56:01.956Z,7.20
2019-05-07T01:01:06.233Z,7.67
2019-05-07T01:06:10.112Z,7.40
2019-05-07T01:11:13.485Z,7.78
2019-05-07T01:16:17.597Z,8.03
2019-05-07T01:21:22.727Z,8.80
2019-05-07T01:26:27.322Z,10.32
2019-05-07T01:31:36.825Z,7.55
2019-05-07T01:36:42.610Z,7.92
2019-05-07T01:41:46.836Z,8.90
2019-05-07T01:46:50.236Z,8.63
2019-05-07T01:51:53.878Z,8.70
2019-05-07T01:56:57.218Z,9.03
2019-05-07T02:02:12.118Z,10.68
2019-05-07T02:07:35.217Z,12.98
2019-05-07T02:12:39.653Z,13.45
2019-05-07T02:17:43.372Z,14.30
2019-05-07T02:22:46.676Z,11.85
2019-05-07T02:27:52.809Z,10.10
2019-05-07T02:32:56.590Z,9.75
2019-05-07T02:38:14.456Z,9.20
2019-05-07T02:43:18.139Z,9.38
2019-05-07T02:48:25.375Z,8.35
2019-05-07T02:53:53.549Z,9.10
2019-05-07T02:58:56.716Z,7.92
2019-05-07T03:04:00.058Z,8.88
2019-05-07T03:09:05.418Z,9.48
2019-05-07T03:14:09.217Z,7.95
2019-05-07T03:19:13.818Z,8.50
2019-05-07T03:24:23.811Z,9.38
2019-05-07T03:29:27.832Z,10.20
2019-05-07T03:34:46.956Z,10.65
2019-05-07T03:39:53.525Z,10.75
2019-05-07T03:45:03.615Z,10.45
2019-05-07T03:50:09.453Z,10.60
2019-05-07T03:55:14.470Z,7.00
2019-05-07T04:00:18.864Z,8.23
2019-05-07T04:05:23.214Z,9.80
2019-05-07T04:10:26.929Z,9.13
2019-05-07T04:15:33.056Z,8.28
2019-05-07T04:20:36.314Z,6.97
2019-05-07T04:26:05.067Z,9.85
2019-05-07T04:31:08.393Z,8.83
2019-05-07T04:36:25.337Z,7.70
2019-05-07T04:41:28.697Z,6.55
2019-05-07T04:46:33.300Z,6.97
2019-05-07T04:51:52.874Z,9.40
2019-05-07T04:56:56.582Z,8.23
2019-05-07T05:02:07.860Z,7.80
2019-05-07T05:07:13.360Z,5.72
2019-05-07T05:12:16.469Z,7.45
2019-05-07T05:17:22.873Z,4.22
2019-05-07T05:22:56.078Z,6.70
2019-05-07T05:27:59.462Z,5.00
2019-05-07T05:33:04.396Z,7.80
2019-05-07T05:38:08.028Z,5.30
2019-05-07T05:43:27.641Z,7.53
2019-05-07T05:48:33.308Z,4.70
2019-05-07T05:53:52.396Z,3.15
2019-05-07T05:59:04.641Z,5.12
2019-05-07T06:04:16.226Z,4.75
2019-05-07T06:09:34.946Z,4.80
2019-05-07T06:14:42.562Z,3.17
2019-05-07T06:19:55.161Z,2.77
2019-05-07T06:25:18.085Z,2.55
2019-05-07T06:30:22.689Z,4.30
2019-05-07T06:35:28.003Z,3.40
2019-05-07T06:40:42.499Z,3.55
2019-05-07T06:45:52.015Z,3.83
2019-05-07T06:50:58.994Z,4.28
2019-05-07T06:56:05.132Z,2.95
2019-05-07T07:01:33.741Z,3.42
2019-05-07T07:06:55.810Z,2.15
2019-05-07T07:12:02.015Z,2.08
2019-05-07T07:17:05.572Z,4.27
2019-05-07T07:22:08.902Z,4.28
2019-05-07T07:27:13.174Z,2.47
2019-05-07T07:32:19.264Z,1.07
2019-05-07T07:37:28.964Z,1.62
2019-05-07T07:42:33.348Z,2.95
2019-05-07T07:47:37.258Z,2.08
2019-05-07T07:52:42.092Z,2.83
2019-05-07T07:58:02.700Z,1.57
2019-05-07T08:03:09.333Z,2.42
2019-05-07T08:08:13.065Z,2.27
2019-05-07T08:13:16.581Z,2.45
2019-05-07T08:18:22.160Z,2.60
2019-05-07T08:23:28.728Z,1.32
2019-05-07T08:28:32.896Z,2.05
2019-05-07T08:33:43.107Z,1.52
2019-05-07T08:38:52.810Z,1.42
2019-05-07T08:44:11.635Z,1.85
2019-05-07T08:49:08.694Z,1.95
2019-05-07T08:54:12.433Z,0.78
2019-05-07T08:59:16.454Z,2.47
2019-05-07T09:04:21.979Z,0.93
2019-05-07T09:09:25.373Z,1.32
2019-05-07T09:14:29.045Z,1.30
2019-05-07T09:19:46.811Z,1.60
2019-05-07T09:24:38.693Z,1.20
2019-05-07T09:30:22.069Z,1.82
2019-05-07T09:35:34.048Z,1.95
2019-05-07T09:40:37.485Z,1.35
2019-05-07T09:45:42.068Z,2.08
2019-05-07T09:50:45.808Z,1.55
2019-05-07T09:55:49.268Z,2.70
2019-05-07T10:00:52.619Z,2.17
2019-05-07T10:05:56.930Z,2.10
2019-05-07T10:11:02.663Z,2.20
2019-05-07T10:16:07.821Z,1.75
2019-05-07T10:21:12.750Z,2.08
2019-05-07T10:26:17.837Z,1.87
2019-05-07T10:31:22.431Z,2.80
2019-05-07T10:36:25.781Z,1.55
2019-05-07T10:41:29.227Z,3.10
2019-05-07T10:46:47.385Z,1.85
2019-05-07T10:51:51.766Z,2.90
2019-05-07T10:56:55.558Z,1.85
2019-05-07T11:02:05.873Z,2.25
2019-05-07T11:07:10.153Z,2.55
2019-05-07T11:12:13.513Z,2.85
2019-05-07T11:17:26.551Z,1.98
2019-05-07T11:22:32.288Z,2.47
2019-05-07T11:27:35.742Z,1.40
2019-05-07T11:32:42.961Z,2.47
2019-05-07T11:37:46.404Z,2.58
2019-05-07T11:43:22.228Z,2.75
2019-05-07T11:48:26.977Z,3.25
2019-05-07T11:53:32.554Z,1.62
2019-05-07T11:58:36.531Z,1.85
2019-05-07T12:03:40.345Z,2.90
2019-05-07T12:08:51.401Z,2.22
2019-05-07T12:13:52.369Z,3.52
2019-05-07T12:18:56.057Z,2.08
2019-05-07T12:23:59.473Z,2.20
2019-05-07T12:29:02.879Z,2.75
2019-05-07T12:34:13.260Z,1.92
2019-05-07T12:39:16.723Z,1.67
2019-05-07T12:44:22.048Z,2.40
2019-05-07T12:49:25.772Z,0.98
2019-05-07T12:54:55.345Z,1.35
2019-05-07T13:00:18.613Z,0.70
2019-05-07T13:05:22.187Z,1.00
2019-05-07T13:10:25.913Z,1.92
2019-05-07T13:15:29.361Z,1.55
2019-05-07T13:20:34.032Z,2.30
2019-05-07T13:25:39.092Z,2.12
2019-05-07T13:30:43.836Z,1.12
2019-05-07T13:35:48.824Z,1.15
2019-05-07T13:41:13.058Z,1.30
2019-05-07T13:46:17.247Z,1.30
2019-05-07T13:51:21.719Z,1.40
2019-05-07T13:56:26.202Z,1.17
2019-05-07T14:01:35.905Z,0.90
2019-05-07T14:06:39.624Z,1.60
2019-05-07T14:11:44.693Z,1.22
2019-05-07T14:16:48.883Z,1.10
2019-05-07T14:21:52.653Z,1.60
2019-05-07T14:26:56.201Z,0.80
2019-05-07T14:32:17.554Z,0.90
2019-05-07T14:37:27.586Z,0.80
2019-05-07T14:42:38.371Z,0.93
2019-05-07T14:47:44.734Z,1.15
2019-05-07T14:52:48.738Z,1.27
2019-05-07T15:02:56.517Z,1.12
2019-05-07T15:08:08.297Z,1.20
2019-05-07T15:13:05.829Z,1.50
2019-05-07T15:18:16.410Z,1.60
2019-05-07T15:23:33.268Z,1.35
2019-05-07T15:28:38.837Z,1.40
2019-05-07T15:33:42.244Z,1.60
2019-05-07T15:38:47.398Z,1.60
2019-05-07T15:43:52.176Z,1.40
2019-05-07T15:48:57.405Z,1.42
2019-05-07T15:54:00.778Z,1.40
2019-05-07T15:59:04.540Z,1.00
2019-05-07T16:04:19.226Z,1.20
2019-05-07T16:09:13.254Z,1.90
2019-05-07T16:14:26.385Z,1.40
2019-05-07T16:19:29.659Z,1.57
2019-05-07T16:24:34.278Z,1.10
2019-05-07T16:29:38.060Z,1.00
2019-05-07T16:34:42.913Z,1.27
2019-05-07T16:39:47.249Z,0.90
2019-05-07T16:44:52.300Z,1.17
2019-05-07T16:49:56.960Z,1.52
2019-05-07T16:55:02.835Z,1.45
2019-05-07T17:00:10.317Z,1.20
2019-05-07T17:05:14.905Z,1.20
2019-05-07T17:10:19.130Z,1.10
2019-05-07T17:15:22.880Z,1.50
2019-05-07T17:20:26.736Z,1.87
2019-05-07T17:25:36.676Z,2.20
2019-05-07T17:30:42.084Z,1.47
2019-05-07T17:35:46.255Z,1.72
2019-05-07T17:40:51.954Z,6.12
2019-05-07T17:45:55.284Z,2.35
2019-05-07T17:51:24.670Z,5.00
2019-05-07T17:56:28.488Z,4.78
2019-05-07T18:01:57.377Z,2.15
2019-05-07T18:07:03.020Z,4.17
2019-05-07T18:12:06.868Z,3.90
2019-05-07T18:17:35.469Z,2.77
2019-05-07T18:22:39.281Z,2.85
2019-05-07T18:27:42.675Z,5.85
2019-05-07T18:32:51.970Z,5.40
2019-05-07T18:37:55.372Z,5.97
2019-05-07T18:42:58.814Z,6.35
2019-05-07T18:48:03.152Z,7.80
2019-05-07T18:53:06.674Z,12.20
2019-05-07T18:58:10.191Z,10.38
2019-05-07T19:03:14.790Z,9.33
2019-05-07T19:08:18.226Z,8.93
2019-05-07T19:13:22.486Z,7.58
2019-05-07T19:18:26.100Z,9.78
2019-05-07T19:23:29.656Z,10.10
2019-05-07T19:28:33.068Z,8.80
2019-05-07T19:33:36.901Z,8.73
2019-05-07T19:38:42.031Z,9.95
2019-05-07T19:43:45.578Z,9.80
2019-05-07T19:48:49.095Z,9.35
2019-05-07T19:53:53.325Z,9.65
2019-05-07T19:58:56.691Z,10.48
2019-05-07T20:04:02.553Z,10.13
2019-05-07T20:09:12.540Z,11.35
2019-05-07T20:14:15.098Z,11.20
2019-05-07T20:19:18.548Z,10.38
2019-05-07T20:24:22.191Z,10.72
2019-05-07T20:29:26.303Z,11.33
2019-05-07T20:34:32.941Z,14.53
2019-05-07T20:39:36.910Z,16.73
2019-05-07T20:44:42.615Z,15.72
2019-05-07T20:49:46.074Z,15.48
2019-05-07T20:55:08.063Z,18.85
2019-05-07T21:00:19.990Z,18.42
2019-05-07T21:05:23.687Z,19.20
2019-05-07T21:10:27.143Z,17.80
2019-05-07T21:15:32.294Z,17.17
2019-05-07T21:20:36.372Z,22.15
2019-05-07T21:25:44.431Z,22.42
2019-05-07T21:30:45.261Z,26.07
2019-05-07T21:35:48.605Z,26.73
2019-05-07T21:40:51.943Z,26.10
2019-05-07T21:45:55.280Z,29.00
2019-05-07T21:50:58.749Z,27.52
2019-05-07T21:56:15.942Z,27.13
2019-05-07T22:01:29.968Z,27.67
2019-05-07T22:06:33.571Z,29.20
2019-05-07T22:11:37.858Z,25.65
2019-05-07T22:16:43.659Z,24.60
2019-05-07T22:21:47.157Z,23.57
2019-05-07T22:26:50.879Z,24.43
2019-05-07T22:32:12.444Z,28.12
2019-05-07T22:37:17.240Z,28.15
2019-05-07T22:42:22.441Z,26.30
2019-05-07T22:47:25.813Z,27.93
2019-05-07T22:52:29.690Z,28.70
2019-05-07T22:57:52.581Z,35.15
2019-05-07T23:02:56.130Z,34.73
2019-05-07T23:08:02.204Z,38.63
2019-05-07T23:13:04.776Z,33.95
2019-05-07T23:18:08.566Z,38.70
2019-05-07T23:23:14.311Z,35.63
2019-05-07T23:28:18.861Z,37.20
2019-05-07T23:33:32.186Z,33.05
2019-05-07T23:38:35.778Z,30.12
2019-05-07T23:43:39.297Z,29.70
2019-05-07T23:48:43.445Z,33.60
2019-05-07T23:53:47.465Z,31.87
2019-05-07T23:58:52.596Z,31.87
